PRINT OUT SECTION, show »

METAR EPBY 212230Z 07010KT CAVOK 18/13 Q1011=

METAR EPGD 212230Z 06006KT CAVOK 16/13 Q1014 =

METAR EPKK 212230Z 05005KT CAVOK 17/13 Q1009 =

METAR EPKT 212230Z 07006KT CAVOK 18/13 Q1009 =

METAR EPLB 212230Z 06005KT CAVOK 16/14 Q1012 =

METAR EPLL 212230Z 08007KT CAVOK 19/11 Q1010 =

METAR EPML 212230Z NIL=

METAR EPMO 212230Z 07009KT CAVOK 17/12 Q1013 =

METAR EPPO 212230Z 07009KT CAVOK 19/12 Q1010 =

METAR EPRA 212230Z 08009KT CAVOK 17/12 Q1011=

METAR EPRZ 212230Z 07006KT CAVOK 17/14 Q1010 =

METAR EPSC 212230Z 06008KT CAVOK 19/14 Q1010 =

METAR EPSY 212230Z VRB02KT CAVOK 16/12 Q1014=

METAR EPWA 212230Z 09009KT CAVOK 20/12 Q1012 NOSIG=

METAR EPWR 212230Z 07007KT CAVOK 22/12 Q1008 =

METAR EPZG 212230Z NIL=
 METAR EPKK
Lokalizacja:EPKK Kraków Balice
Czas:22:30 UTC
Średni kierunek wiatru:50 °
Średnia prędkość wiatru:5 węzłów
CAVOK:Widzialność 10 km i więcej, zjawisko: NIL, zachmurzenie: NSC
Temperatura powietrza:17 °C
Temperatura punktu rosy:13 °C
Ciśnienie QNH:1009 hPa